Time;durP1;ratioP1;P1;durP2;ratioP2;P2;SDS_P1;SDS_P2;PMS_P1;PMS_P2;Temp;Humidity;BMP_temperature;BMP_pressure;BME280_temperature;BME280_humidity;BME280_pressure;Samples;Min_cycle;Max_cycle;Signal;HPM_P1;HPM_P2
2022/04/28 00:01:03;;;;;;;15.93;8.63;;;12.70;98.90;;;;;;5094029;28;20040;-84
2022/04/28 00:03:30;;;;;;;14.13;8.40;;;12.70;99.00;;;;;;5072582;28;20040;-84
2022/04/28 00:05:57;;;;;;;14.35;8.02;;;12.70;99.00;;;;;;5075465;28;20522;-84
2022/04/28 00:08:23;;;;;;;14.50;7.47;;;12.70;99.10;;;;;;5069587;28;21012;-83
2022/04/28 00:10:52;;;;;;;14.75;8.52;;;12.60;99.20;;;;;;5093334;28;20551;-84
2022/04/28 00:13:18;;;;;;;14.60;8.73;;;12.80;99.30;;;;;;5090025;28;20036;-84
2022/04/28 00:15:44;;;;;;;14.27;7.50;;;12.50;99.40;;;;;;5093950;28;20951;-85
2022/04/28 00:18:10;;;;;;;13.48;7.53;;;12.50;99.50;;;;;;5072216;28;20051;-84
2022/04/28 00:20:36;;;;;;;15.07;7.68;;;12.50;99.60;;;;;;5070573;28;20503;-84
2022/04/28 00:23:02;;;;;;;15.27;7.25;;;12.50;99.60;;;;;;5091435;28;20036;-85
2022/04/28 00:25:31;;;;;;;14.60;8.88;;;12.40;99.70;;;;;;5089538;28;20068;-84
2022/04/28 00:27:57;;;;;;;12.73;7.80;;;12.40;99.70;;;;;;5086474;28;20060;-85
2022/04/28 00:30:23;;;;;;;15.95;7.90;;;12.40;99.70;;;;;;5079634;28;20576;-84
2022/04/28 00:32:48;;;;;;;10.93;7.05;;;12.40;99.70;;;;;;5091577;28;20048;-84
2022/04/28 00:35:14;;;;;;;13.15;8.07;;;12.40;99.80;;;;;;5073596;28;20059;-84
2022/04/28 00:37:40;;;;;;;13.82;7.93;;;12.40;99.90;;;;;;5093777;28;20044;-84
2022/04/28 00:40:07;;;;;;;13.55;7.72;;;12.30;99.90;;;;;;5089935;28;20571;-84
2022/04/28 00:42:33;;;;;;;13.32;7.65;;;12.30;99.90;;;;;;5069776;28;20109;-84
2022/04/28 00:45:01;;;;;;;12.57;7.60;;;12.20;99.90;;;;;;5073665;28;20066;-85
2022/04/28 00:53:00;;;;;;;15.80;8.15;;;12.20;99.90;;;;;;5091857;28;20509;-84
2022/04/28 00:55:29;;;;;;;15.23;8.32;;;12.10;99.90;;;;;;5072924;28;20101;-84
2022/04/28 00:57:58;;;;;;;15.80;7.63;;;12.10;99.90;;;;;;5086420;27;20046;-83
2022/04/28 01:00:24;;;;;;;12.73;7.70;;;12.10;99.90;;;;;;5076161;27;20036;-83
2022/04/28 01:02:50;;;;;;;14.40;8.30;;;12.00;99.90;;;;;;5088911;28;20040;-84
2022/04/28 01:05:16;;;;;;;13.20;8.05;;;12.00;99.90;;;;;;5085343;28;20302;-83
2022/04/28 01:07:42;;;;;;;14.77;9.02;;;12.00;99.90;;;;;;5095230;28;20510;-84
2022/04/28 01:10:09;;;;;;;13.32;8.25;;;12.00;99.90;;;;;;5091181;28;20050;-84
2022/04/28 01:12:36;;;;;;;15.07;7.32;;;11.90;99.90;;;;;;5090969;28;20422;-84
2022/04/28 01:15:02;;;;;;;16.00;8.50;;;11.90;99.90;;;;;;5087765;27;21164;-84
2022/04/28 01:17:28;;;;;;;13.68;7.28;;;11.80;99.90;;;;;;5089726;28;20047;-84
2022/04/28 01:19:54;;;;;;;14.35;7.82;;;11.80;99.90;;;;;;5074708;28;20044;-83
2022/04/28 01:22:19;;;;;;;14.73;7.43;;;11.80;99.90;;;;;;5090359;28;20041;-84
2022/04/28 01:24:45;;;;;;;17.27;9.15;;;11.80;99.90;;;;;;5092294;28;20561;-84
2022/04/28 01:27:13;;;;;;;15.38;10.30;;;11.70;99.90;;;;;;5088599;28;20097;-83
2022/04/28 01:29:39;;;;;;;13.85;7.47;;;11.70;99.90;;;;;;5072543;28;20044;-84
2022/04/28 01:32:06;;;;;;;16.25;8.07;;;11.70;99.90;;;;;;5088366;28;20118;-84
2022/04/28 01:34:31;;;;;;;15.30;7.68;;;11.60;99.90;;;;;;5073506;28;20107;-84
2022/04/28 01:36:57;;;;;;;16.75;9.52;;;11.60;99.90;;;;;;5093905;28;20529;-84
2022/04/28 01:39:45;;;;;;;16.45;9.25;;;11.60;99.90;;;;;;5086934;28;20048;-84
2022/04/28 01:45:40;;;;;;;13.63;7.20;;;11.40;99.90;;;;;;5048720;28;20130;-84
2022/04/28 01:48:05;;;;;;;20.90;9.32;;;11.50;99.90;;;;;;5045441;28;20041;-84
2022/04/28 01:50:31;;;;;;;15.48;7.63;;;11.50;99.90;;;;;;5048830;28;20044;-85
2022/04/28 01:55:42;;;;;;;14.07;8.55;;;11.20;99.90;;;;;;5051540;28;20950;-84
2022/04/28 01:58:08;;;;;;;18.08;8.85;;;11.40;99.90;;;;;;5048666;28;20049;-84
2022/04/28 02:00:34;;;;;;;14.52;8.20;;;11.40;99.90;;;;;;5044167;28;20544;-85
2022/04/28 02:03:00;;;;;;;13.20;8.02;;;11.40;99.90;;;;;;5046270;28;20141;-84
2022/04/28 02:05:26;;;;;;;13.93;7.78;;;11.30;99.90;;;;;;5030056;28;20128;-84
2022/04/28 02:07:51;;;;;;;18.10;7.82;;;11.30;99.90;;;;;;5035476;28;20057;-84
2022/04/28 02:10:17;;;;;;;19.58;8.32;;;11.30;99.90;;;;;;5048873;28;20056;-85
2022/04/28 02:12:43;;;;;;;21.77;8.32;;;11.10;99.90;;;;;;5054312;28;20052;-84
2022/04/28 02:15:10;;;;;;;14.93;8.70;;;11.20;99.90;;;;;;5093346;28;20114;-85
2022/04/28 02:17:42;;;;;;;14.27;8.30;;;11.20;99.90;;;;;;5090047;28;20040;-84
2022/04/28 02:20:10;;;;;;;13.73;8.30;;;11.20;99.90;;;;;;5074666;28;20757;-84
2022/04/28 02:22:37;;;;;;;15.93;10.32;;;11.10;99.90;;;;;;5094487;28;20051;-85
2022/04/28 02:25:03;;;;;;;16.13;9.38;;;11.00;99.90;;;;;;5092439;28;20074;-84
2022/04/28 02:27:30;;;;;;;18.23;9.10;;;11.00;99.90;;;;;;5091490;28;20087;-84
2022/04/28 02:29:56;;;;;;;15.73;8.52;;;11.00;99.90;;;;;;5074624;28;20079;-84
2022/04/28 02:32:22;;;;;;;21.65;9.80;;;10.90;99.90;;;;;;5070730;28;20136;-84
2022/04/28 02:34:48;;;;;;;15.57;7.72;;;10.90;99.90;;;;;;5074675;28;20205;-84
2022/04/28 02:37:16;;;;;;;15.55;8.95;;;10.80;99.90;;;;;;5072765;28;20111;-84
2022/04/28 02:39:42;;;;;;;15.65;9.43;;;10.80;99.90;;;;;;5094217;28;20097;-84
2022/04/28 02:42:09;;;;;;;17.77;8.55;;;10.70;99.90;;;;;;5090876;28;20555;-83
2022/04/28 02:44:35;;;;;;;15.80;9.60;;;10.70;99.90;;;;;;5090800;28;20048;-84
2022/04/28 02:47:00;;;;;;;18.80;9.18;;;10.70;99.90;;;;;;5092270;28;20067;-84
2022/04/28 02:49:26;;;;;;;19.10;9.80;;;10.70;99.90;;;;;;5087355;28;20196;-84
2022/04/28 02:51:52;;;;;;;17.45;10.55;;;10.70;99.90;;;;;;5072661;28;20143;-83
2022/04/28 02:54:18;;;;;;;18.58;8.85;;;10.70;99.90;;;;;;5093945;28;20044;-84
2022/04/28 02:56:44;;;;;;;21.27;9.45;;;10.60;99.90;;;;;;5095391;28;20044;-84
2022/04/28 02:59:09;;;;;;;19.42;9.23;;;10.60;99.90;;;;;;5095262;28;20055;-84
2022/04/28 03:01:37;;;;;;;17.02;9.13;;;10.60;99.90;;;;;;5077223;28;20278;-84
2022/04/28 03:04:03;;;;;;;18.02;10.52;;;10.50;99.90;;;;;;5082788;28;20044;-84
2022/04/28 03:11:59;;;;;;;19.70;10.18;;;10.50;99.90;;;;;;5097461;28;20051;-84
2022/04/28 03:14:28;;;;;;;20.48;11.52;;;10.40;99.90;;;;;;5097246;28;20577;-84
2022/04/28 03:16:54;;;;;;;17.85;9.52;;;10.40;99.90;;;;;;5097136;28;20036;-83
2022/04/28 03:19:20;;;;;;;16.08;10.18;;;10.40;99.90;;;;;;5099142;28;20046;-84
2022/04/28 03:21:46;;;;;;;19.77;10.35;;;10.40;99.90;;;;;;5079467;28;20048;-85
2022/04/28 03:24:11;;;;;;;18.90;9.48;;;10.40;99.90;;;;;;5073325;28;20125;-84
2022/04/28 03:26:40;;;;;;;21.70;10.13;;;10.30;99.90;;;;;;5093788;28;20068;-84
2022/04/28 03:29:06;;;;;;;17.33;9.43;;;10.30;99.90;;;;;;5091716;28;20051;-84
2022/04/28 03:31:34;;;;;;;16.65;8.38;;;10.30;99.90;;;;;;5094454;28;20040;-84
2022/04/28 03:34:00;;;;;;;20.60;10.05;;;10.20;99.90;;;;;;5092583;28;20091;-84
2022/04/28 03:39:11;;;;;;;20.00;8.88;;;10.20;99.90;;;;;;5091895;28;20044;-84
2022/04/28 03:41:37;;;;;;;20.30;10.43;;;10.10;99.90;;;;;;5093472;28;20428;-85
2022/04/28 03:44:03;;;;;;;20.88;10.27;;;10.10;99.90;;;;;;5085912;28;20047;-84
2022/04/28 03:46:29;;;;;;;19.52;9.35;;;10.10;99.90;;;;;;5092193;28;20041;-84
2022/04/28 03:48:55;;;;;;;18.52;9.95;;;10.10;99.90;;;;;;5075107;28;20611;-85
2022/04/28 03:51:21;;;;;;;18.67;9.77;;;10.00;99.90;;;;;;5094816;28;20036;-84
2022/04/28 03:53:46;;;;;;;20.13;10.20;;;10.00;99.90;;;;;;5074070;28;20497;-85
2022/04/28 03:56:12;;;;;;;15.48;8.73;;;10.00;99.90;;;;;;5072650;28;20465;-84
2022/04/28 03:58:38;;;;;;;18.85;10.48;;;10.00;99.90;;;;;;5093016;28;20057;-84
2022/04/28 04:01:04;;;;;;;17.15;8.90;;;10.00;99.90;;;;;;5090456;28;20600;-84
2022/04/28 04:03:30;;;;;;;18.35;9.93;;;9.90;99.90;;;;;;5093114;28;20514;-85
2022/04/28 04:06:02;;;;;;;21.52;9.25;;;9.90;99.90;;;;;;5092552;28;20061;-84
2022/04/28 04:08:28;;;;;;;22.42;8.90;;;10.20;99.90;;;;;;5094823;28;20078;-84
2022/04/28 04:10:54;;;;;;;18.08;9.95;;;9.80;99.90;;;;;;5073521;28;20114;-84
2022/04/28 04:13:19;;;;;;;20.77;9.27;;;9.80;99.90;;;;;;5075997;28;20560;-84
2022/04/28 04:15:45;;;;;;;17.80;9.13;;;9.70;99.90;;;;;;5072832;28;20046;-84
2022/04/28 04:18:11;;;;;;;21.33;10.10;;;9.70;99.90;;;;;;5075504;28;20127;-84
2022/04/28 04:20:40;;;;;;;19.95;10.95;;;9.60;99.90;;;;;;5068915;28;20055;-84
2022/04/28 04:23:06;;;;;;;22.60;9.05;;;9.60;99.90;;;;;;5076911;28;20035;-85
2022/04/28 04:25:31;;;;;;;25.15;11.70;;;9.60;99.90;;;;;;5092800;28;20047;-85
2022/04/28 04:27:57;;;;;;;18.45;9.23;;;9.60;99.90;;;;;;5092032;28;20040;-85
2022/04/28 04:33:08;;;;;;;19.23;9.43;;;9.60;99.90;;;;;;5093049;28;20044;-85
2022/04/28 04:35:33;;;;;;;16.60;8.07;;;9.60;99.90;;;;;;5092148;28;20542;-85
2022/04/28 04:38:02;;;;;;;17.08;7.40;;;9.60;99.90;;;;;;5086788;27;20044;-85
2022/04/28 04:40:27;;;;;;;16.10;9.00;;;9.60;99.90;;;;;;5075016;28;20040;-85
2022/04/28 04:42:53;;;;;;;32.00;10.10;;;9.60;99.90;;;;;;5091210;28;20126;-85
2022/04/28 04:45:19;;;;;;;15.50;8.23;;;9.60;99.90;;;;;;5075274;28;20152;-84
2022/04/28 04:47:45;;;;;;;17.52;9.40;;;9.60;99.90;;;;;;5090101;27;20043;-84
2022/04/28 04:50:11;;;;;;;22.83;10.70;;;9.60;99.90;;;;;;5089526;28;20036;-82
2022/04/28 04:52:37;;;;;;;21.02;9.38;;;9.80;99.90;;;;;;5073661;28;20533;-83
2022/04/28 04:55:03;;;;;;;17.17;8.35;;;9.60;99.90;;;;;;5093797;28;20976;-85
2022/04/28 04:57:29;;;;;;;16.40;8.57;;;9.60;99.90;;;;;;5094122;28;20098;-83
2022/04/28 04:59:55;;;;;;;17.27;9.15;;;9.50;99.90;;;;;;5073386;28;20036;-83
2022/04/28 05:02:23;;;;;;;15.85;7.93;;;9.50;99.90;;;;;;5093428;28;20040;-83
2022/04/28 05:04:49;;;;;;;15.13;7.55;;;9.50;99.90;;;;;;5075239;28;20073;-83
2022/04/28 05:07:14;;;;;;;21.90;9.60;;;9.50;99.90;;;;;;5073713;28;20048;-85
2022/04/28 05:09:42;;;;;;;12.57;7.55;;;9.50;99.90;;;;;;5093104;28;20623;-83
2022/04/28 05:12:08;;;;;;;19.55;10.48;;;9.50;99.90;;;;;;5091007;28;21170;-83
2022/04/28 05:14:34;;;;;;;17.00;8.50;;;9.50;99.90;;;;;;5066594;28;20036;-82
2022/04/28 05:17:00;;;;;;;15.40;8.25;;;9.60;99.90;;;;;;5089619;28;20047;-82
2022/04/28 05:19:27;;;;;;;20.85;9.32;;;9.90;99.90;;;;;;5070626;28;20036;-82
2022/04/28 05:21:54;;;;;;;16.95;8.43;;;9.70;99.90;;;;;;5083513;28;20135;-83
2022/04/28 05:24:56;;;;;;;18.73;8.70;;;9.80;99.90;;;;;;5094947;28;20577;-91
2022/04/28 05:27:21;;;;;;;23.67;10.35;;;9.40;99.90;;;;;;5055463;28;20099;-82
2022/04/28 05:29:47;;;;;;;16.70;9.45;;;9.90;99.90;;;;;;5093284;28;20040;-82
2022/04/28 05:32:13;;;;;;;16.75;7.07;;;9.90;99.90;;;;;;5092374;28;20078;-82
2022/04/28 05:34:39;;;;;;;16.92;8.90;;;10.00;99.90;;;;;;5069648;28;20028;-82
2022/04/28 05:37:26;;;;;;;24.27;8.48;;;10.00;99.90;;;;;;5092383;28;20838;-82
2022/04/28 05:39:52;;;;;;;19.45;9.35;;;10.10;99.90;;;;;;5042138;28;20573;-83
2022/04/28 05:42:18;;;;;;;17.48;8.90;;;10.10;99.90;;;;;;5040959;28;20238;-80
2022/04/28 05:47:42;;;;;;;18.25;8.80;;;10.10;99.90;;;;;;4997940;28;20595;-81
2022/04/28 05:50:10;;;;;;;18.50;9.88;;;10.20;99.90;;;;;;5041652;28;20060;-80
2022/04/28 05:52:41;;;;;;;14.00;7.03;;;10.30;99.90;;;;;;5040906;28;20950;-86
2022/04/28 05:55:07;;;;;;;17.25;8.77;;;10.30;99.90;;;;;;5031305;28;20049;-82
2022/04/28 05:57:33;;;;;;;19.00;9.20;;;10.40;99.90;;;;;;5042836;28;20053;-82
2022/04/28 05:59:59;;;;;;;20.90;11.40;;;10.40;99.90;;;;;;5041744;28;20065;-81
2022/04/28 06:02:25;;;;;;;18.92;9.35;;;10.40;99.90;;;;;;5031002;28;20172;-81
2022/04/28 06:04:50;;;;;;;16.02;9.88;;;10.50;99.90;;;;;;5026190;28;20103;-82
2022/04/28 06:07:17;;;;;;;17.02;9.15;;;10.60;99.90;;;;;;5024648;28;20049;-81
2022/04/28 06:09:43;;;;;;;16.10;8.80;;;10.60;99.90;;;;;;5042410;28;20626;-81
2022/04/28 06:12:09;;;;;;;16.65;8.50;;;10.20;99.90;;;;;;5069972;28;20048;-82
2022/04/28 06:14:35;;;;;;;21.85;10.23;;;10.80;99.90;;;;;;5087280;28;20044;-85
2022/04/28 06:17:01;;;;;;;20.00;8.57;;;10.80;99.90;;;;;;5082989;28;20045;-84
2022/04/28 06:19:27;;;;;;;18.00;8.93;;;10.90;99.90;;;;;;5071736;28;20064;-82
2022/04/28 06:21:53;;;;;;;23.73;11.60;;;11.00;99.90;;;;;;5073566;28;20053;-82
2022/04/28 06:24:21;;;;;;;21.33;10.48;;;11.00;99.90;;;;;;5072347;28;20048;-82
2022/04/28 06:26:47;;;;;;;29.95;11.30;;;10.80;99.90;;;;;;5072817;28;20143;-83
2022/04/28 06:29:13;;;;;;;32.42;10.30;;;11.10;99.90;;;;;;5075597;28;20055;-83
2022/04/28 06:31:38;;;;;;;17.15;8.60;;;11.20;99.90;;;;;;5073956;28;20129;-82
2022/04/28 06:34:04;;;;;;;21.38;10.38;;;11.30;99.90;;;;;;5074403;28;20052;-83
2022/04/28 06:36:30;;;;;;;17.60;9.35;;;11.30;99.90;;;;;;5075034;28;20041;-84
2022/04/28 06:38:56;;;;;;;19.08;9.23;;;11.40;99.90;;;;;;5073172;28;20477;-82
2022/04/28 06:41:21;;;;;;;21.70;8.63;;;11.40;99.90;;;;;;5073691;28;20040;-82
2022/04/28 06:43:47;;;;;;;22.80;9.85;;;11.40;99.90;;;;;;5071466;28;20581;-82
2022/04/28 06:46:13;;;;;;;18.58;9.38;;;11.50;99.90;;;;;;5074464;28;20040;-83
2022/04/28 06:48:39;;;;;;;19.08;10.30;;;11.50;99.90;;;;;;5074610;28;20051;-81
2022/04/28 06:51:05;;;;;;;18.80;9.18;;;11.60;99.90;;;;;;5071678;28;20044;-82
2022/04/28 06:53:30;;;;;;;17.67;8.35;;;11.70;99.90;;;;;;5074287;28;20132;-82
2022/04/28 06:55:56;;;;;;;18.52;8.93;;;11.70;99.90;;;;;;5077201;28;20045;-83
2022/04/28 06:58:24;;;;;;;17.08;8.30;;;11.80;99.90;;;;;;5084410;28;20529;-82
2022/04/28 07:00:50;;;;;;;19.77;8.20;;;11.90;99.90;;;;;;5084978;28;20588;-82
2022/04/28 07:03:16;;;;;;;16.65;8.60;;;11.90;99.90;;;;;;5076632;28;20048;-82
2022/04/28 07:05:42;;;;;;;19.40;9.52;;;11.90;99.90;;;;;;5077117;28;20036;-82
2022/04/28 07:08:08;;;;;;;17.33;9.88;;;12.00;99.90;;;;;;5077828;28;20051;-82
2022/04/28 07:10:37;;;;;;;17.90;9.48;;;12.10;99.90;;;;;;5073824;28;20067;-82
2022/04/28 07:13:03;;;;;;;18.05;8.50;;;12.20;99.90;;;;;;5085873;28;20072;-82
2022/04/28 07:15:29;;;;;;;13.18;7.30;;;12.30;99.90;;;;;;5075829;28;20052;-82
2022/04/28 07:17:54;;;;;;;15.60;7.93;;;12.30;99.90;;;;;;5077664;28;20044;-82
2022/04/28 07:20:20;;;;;;;15.98;8.38;;;12.40;99.90;;;;;;5084354;28;20117;-82
2022/04/28 07:22:46;;;;;;;16.55;9.20;;;12.50;99.90;;;;;;5077642;28;20854;-82
2022/04/28 07:25:12;;;;;;;13.50;8.20;;;12.60;99.90;;;;;;5076763;28;20056;-82
2022/04/28 07:27:37;;;;;;;15.77;8.57;;;12.70;99.90;;;;;;5076394;28;20103;-82
2022/04/28 07:30:03;;;;;;;16.70;8.15;;;12.80;99.90;;;;;;5076969;28;20059;-82
2022/04/28 07:32:29;;;;;;;13.65;7.72;;;13.00;99.90;;;;;;5075656;28;20636;-82
2022/04/28 07:34:56;;;;;;;10.88;6.93;;;13.10;99.90;;;;;;5078319;28;20067;-82
2022/04/28 07:37:21;;;;;;;16.40;9.68;;;13.10;99.90;;;;;;5076255;28;20452;-82
2022/04/28 07:39:47;;;;;;;16.55;8.27;;;13.20;99.90;;;;;;5076226;28;20044;-82
2022/04/28 07:42:13;;;;;;;13.45;7.90;;;13.20;99.90;;;;;;5075952;28;20052;-82
2022/04/28 07:44:39;;;;;;;16.77;8.35;;;13.20;99.90;;;;;;5075648;28;20044;-82
2022/04/28 07:47:04;;;;;;;14.00;8.00;;;13.30;99.90;;;;;;5076937;28;20449;-82
2022/04/28 07:49:30;;;;;;;15.10;9.00;;;13.40;99.90;;;;;;5076365;28;20052;-82
2022/04/28 07:51:56;;;;;;;12.18;7.40;;;13.60;99.90;;;;;;5076890;28;20036;-83
2022/04/28 07:54:22;;;;;;;14.48;8.10;;;13.80;99.90;;;;;;5077809;28;20554;-82
2022/04/28 07:56:47;;;;;;;14.40;7.15;;;13.90;99.90;;;;;;5092001;28;20055;-83
2022/04/28 07:59:13;;;;;;;12.73;7.65;;;14.00;99.90;;;;;;5084399;28;20061;-83
2022/04/28 08:01:39;;;;;;;13.27;8.50;;;14.00;99.90;;;;;;5074807;28;20573;-82
2022/04/28 08:04:05;;;;;;;11.88;8.13;;;14.10;99.90;;;;;;5077164;28;20055;-82
2022/04/28 08:06:30;;;;;;;16.45;9.00;;;14.20;99.90;;;;;;5075305;28;20048;-83
2022/04/28 08:08:56;;;;;;;11.43;7.07;;;14.30;99.90;;;;;;5076211;28;20077;-83
2022/04/28 08:11:22;;;;;;;13.65;8.13;;;14.30;99.90;;;;;;5074502;28;20422;-82
2022/04/28 08:13:49;;;;;;;14.05;7.78;;;14.40;99.90;;;;;;5065931;28;20068;-83
2022/04/28 08:16:15;;;;;;;16.33;7.57;;;14.50;99.90;;;;;;5075444;28;20066;-83
2022/04/28 08:18:41;;;;;;;10.98;6.70;;;14.70;99.90;;;;;;5090407;28;21091;-82
2022/04/28 08:21:08;;;;;;;14.43;8.27;;;14.70;99.90;;;;;;5068265;28;20040;-83
2022/04/28 08:23:53;;;;;;;12.27;7.40;;;14.80;99.90;;;;;;5076178;28;20289;-82
2022/04/28 08:26:43;;;;;;;12.27;6.82;;;15.00;99.90;;;;;;5069108;28;20135;-83
2022/04/28 08:29:20;;;;;;;15.55;7.75;;;15.00;99.90;;;;;;5083926;28;20140;-83
2022/04/28 08:31:46;;;;;;;13.13;7.95;;;15.10;99.90;;;;;;5076471;28;20055;-83
2022/04/28 08:34:13;;;;;;;14.13;8.20;;;15.20;99.90;;;;;;5075299;28;20115;-83
2022/04/28 08:36:42;;;;;;;9.82;7.15;;;15.20;99.90;;;;;;5075843;28;22202;-83
2022/04/28 08:39:08;;;;;;;14.13;7.13;;;15.30;99.90;;;;;;5075155;28;20036;-83
2022/04/28 08:41:36;;;;;;;10.88;7.00;;;15.30;99.90;;;;;;5074718;28;20048;-82
2022/04/28 08:44:04;;;;;;;12.02;7.00;;;15.40;99.90;;;;;;5075696;28;20501;-82
2022/04/28 08:49:16;;;;;;;13.63;7.95;;;15.50;99.90;;;;;;5075294;28;20075;-83
2022/04/28 08:51:43;;;;;;;16.05;6.88;;;15.60;99.90;;;;;;5065713;28;20474;-83
2022/04/28 08:54:10;;;;;;;11.50;7.00;;;15.70;99.90;;;;;;5084219;28;20813;-82
2022/04/28 08:56:38;;;;;;;16.30;8.95;;;15.70;99.90;;;;;;5074861;28;20636;-82
2022/04/28 08:59:04;;;;;;;11.57;7.63;;;15.80;99.90;;;;;;5091298;28;20047;-83
2022/04/28 09:01:30;;;;;;;11.80;7.30;;;15.90;99.90;;;;;;5094076;28;20040;-82
2022/04/28 09:03:56;;;;;;;18.25;8.73;;;16.00;99.90;;;;;;5094810;28;20044;-83
2022/04/28 09:06:24;;;;;;;14.40;6.68;;;16.00;99.90;;;;;;5095476;28;20159;-83
2022/04/28 09:08:51;;;;;;;15.77;6.70;;;16.10;99.90;;;;;;5095399;28;20044;-83
2022/04/28 09:11:25;;;;;;;9.32;6.43;;;16.20;99.90;;;;;;5077114;28;20035;-83
2022/04/28 09:14:12;;;;;;;21.30;7.13;;;16.30;99.90;;;;;;5095185;28;20123;-83
2022/04/28 09:16:50;;;;;;;14.32;7.25;;;16.40;99.90;;;;;;5076413;28;20048;-83
2022/04/28 09:19:25;;;;;;;13.35;7.15;;;16.40;99.90;;;;;;5096590;28;20044;-83
2022/04/28 09:22:09;;;;;;;8.80;5.60;;;16.50;99.90;;;;;;5096487;28;21059;-82
2022/04/28 09:24:44;;;;;;;13.63;7.18;;;16.60;99.90;;;;;;5094817;28;20043;-83
2022/04/28 09:27:11;;;;;;;14.38;7.20;;;16.60;99.90;;;;;;5095578;28;20119;-83
2022/04/28 09:29:39;;;;;;;13.82;7.78;;;16.70;99.90;;;;;;5076068;28;20071;-83
2022/04/28 09:32:13;;;;;;;11.02;6.80;;;16.80;99.90;;;;;;5086737;28;20556;-83
2022/04/28 09:34:47;;;;;;;10.38;6.57;;;17.00;99.90;;;;;;5093383;27;20593;-83
2022/04/28 09:37:22;;;;;;;9.02;5.80;;;17.10;99.90;;;;;;5093082;28;20059;-83
2022/04/28 09:42:42;;;;;;;10.23;6.95;;;17.10;99.90;;;;;;5093617;28;20208;-83
2022/04/28 09:45:09;;;;;;;12.32;6.75;;;17.20;99.90;;;;;;5095430;28;20119;-84
2022/04/28 09:47:36;;;;;;;12.98;7.22;;;17.30;99.90;;;;;;5093366;28;20040;-83
2022/04/28 09:50:12;;;;;;;12.70;6.15;;;17.30;99.90;;;;;;5093941;28;20898;-82
2022/04/28 09:52:41;;;;;;;11.85;4.85;;;17.30;99.90;;;;;;5093388;28;20585;-82
2022/04/28 09:55:07;;;;;;;10.10;5.93;;;17.30;99.90;;;;;;5094273;28;20116;-83
2022/04/28 09:57:32;;;;;;;8.13;4.20;;;17.30;99.90;;;;;;5094397;28;20488;-83
2022/04/28 09:59:59;;;;;;;8.57;5.80;;;17.40;99.90;;;;;;5094765;28;20055;-82
2022/04/28 10:02:26;;;;;;;12.18;5.22;;;17.40;99.90;;;;;;5093918;28;20036;-82
2022/04/28 10:04:54;;;;;;;7.95;4.63;;;17.30;99.90;;;;;;5098087;28;20051;-82
2022/04/28 10:07:21;;;;;;;9.05;5.70;;;17.40;99.90;;;;;;5079913;28;20586;-82
2022/04/28 10:09:48;;;;;;;6.32;4.30;;;17.40;99.90;;;;;;5096618;28;20098;-82
2022/04/28 10:12:26;;;;;;;7.93;4.65;;;17.40;99.70;;;;;;5096045;28;20090;-84
2022/04/28 10:14:56;;;;;;;7.15;5.03;;;17.40;99.40;;;;;;5098317;28;20036;-84
2022/04/28 10:17:31;;;;;;;6.95;4.60;;;17.40;99.30;;;;;;5098753;28;20053;-83
2022/04/28 10:20:03;;;;;;;6.00;4.60;;;17.50;99.00;;;;;;5072109;28;20040;-83
2022/04/28 10:22:34;;;;;;;9.13;5.63;;;17.50;98.40;;;;;;5079226;28;20040;-83
2022/04/28 10:33:23;;;;;;;6.82;5.50;;;17.70;97.50;;;;;;5098847;28;19970;-83
2022/04/28 10:35:49;;;;;;;7.57;4.47;;;17.70;97.20;;;;;;5097459;28;20040;-83
2022/04/28 10:38:14;;;;;;;7.00;4.85;;;17.80;96.80;;;;;;5097751;28;20051;-83
2022/04/28 10:40:53;;;;;;;5.72;4.10;;;18.00;96.50;;;;;;5100526;28;20857;-83
2022/04/28 10:43:21;;;;;;;7.30;5.65;;;18.10;96.40;;;;;;5097873;28;20036;-83
2022/04/28 10:45:49;;;;;;;7.05;4.85;;;18.20;96.30;;;;;;5100142;28;21325;-84
2022/04/28 10:48:32;;;;;;;7.55;4.10;;;18.30;95.80;;;;;;5080100;28;20566;-83
2022/04/28 10:51:18;;;;;;;7.65;4.18;;;18.40;95.70;;;;;;5080325;28;20055;-83
2022/04/28 10:54:21;;;;;;;10.32;5.85;;;18.50;95.20;;;;;;5088318;28;20048;-83
2022/04/28 10:57:02;;;;;;;5.82;4.15;;;18.40;94.90;;;;;;5097844;28;20044;-83
2022/04/28 10:59:34;;;;;;;6.18;4.25;;;18.50;94.70;;;;;;5096833;28;20058;-83
2022/04/28 11:02:15;;;;;;;9.15;4.50;;;18.50;94.60;;;;;;5097778;28;20600;-83
2022/04/28 11:04:56;;;;;;;5.70;3.70;;;18.50;94.10;;;;;;5095524;27;21145;-83
2022/04/28 11:07:28;;;;;;;9.70;4.77;;;18.40;93.90;;;;;;5098211;28;20043;-83
2022/04/28 11:09:59;;;;;;;4.97;3.75;;;18.50;93.30;;;;;;5078414;28;20259;-83
2022/04/28 11:12:32;;;;;;;6.72;4.10;;;18.60;93.50;;;;;;5095308;28;20289;-83
2022/04/28 11:15:07;;;;;;;5.65;4.03;;;18.70;93.20;;;;;;5098000;28;20043;-83
2022/04/28 11:17:38;;;;;;;6.05;4.47;;;18.90;93.00;;;;;;5096584;28;20560;-83
2022/04/28 11:20:12;;;;;;;5.35;4.15;;;18.90;92.60;;;;;;5097723;28;20107;-83
2022/04/28 11:22:50;;;;;;;5.65;4.05;;;19.00;92.30;;;;;;5071196;28;20155;-84
2022/04/28 11:25:18;;;;;;;8.98;3.78;;;19.10;92.30;;;;;;5097825;28;20032;-83
2022/04/28 11:27:46;;;;;;;5.43;4.05;;;19.20;92.30;;;;;;5088126;28;20249;-83
2022/04/28 11:30:16;;;;;;;13.02;4.70;;;19.40;92.20;;;;;;5078981;28;20055;-84
2022/04/28 11:32:53;;;;;;;8.65;4.85;;;19.50;91.90;;;;;;5097646;28;20036;-84
2022/04/28 11:35:19;;;;;;;6.43;4.03;;;19.60;91.80;;;;;;5079234;28;20164;-84
2022/04/28 11:37:48;;;;;;;8.88;3.65;;;19.70;91.70;;;;;;5077331;28;20097;-84
2022/04/28 11:40:16;;;;;;;9.70;4.13;;;19.70;91.50;;;;;;5099937;28;20067;-84
2022/04/28 11:42:42;;;;;;;4.47;2.70;;;19.80;90.90;;;;;;5078780;28;20040;-85
2022/04/28 11:45:08;;;;;;;8.68;3.20;;;19.80;91.00;;;;;;5089628;27;20064;-84
2022/04/28 11:47:45;;;;;;;8.43;4.03;;;20.00;90.80;;;;;;5096746;28;20047;-83
2022/04/28 11:50:22;;;;;;;4.00;2.22;;;20.10;90.50;;;;;;5096909;28;20047;-83
2022/04/28 11:53:02;;;;;;;3.33;2.20;;;20.20;89.40;;;;;;5077297;28;20121;-83
2022/04/28 11:55:30;;;;;;;6.93;2.72;;;20.20;88.30;;;;;;5071150;28;20043;-84
2022/04/28 11:57:56;;;;;;;3.42;2.53;;;20.20;87.80;;;;;;5095801;28;20051;-83
2022/04/28 12:00:26;;;;;;;4.22;2.45;;;20.20;86.20;;;;;;5096640;28;20159;-83
2022/04/28 12:02:53;;;;;;;5.97;2.55;;;20.10;85.90;;;;;;5070683;28;20047;-84
2022/04/28 12:05:30;;;;;;;5.57;3.05;;;20.10;85.00;;;;;;5097583;28;20149;-84
2022/04/28 12:07:56;;;;;;;4.80;3.15;;;20.20;85.20;;;;;;5097459;28;20047;-84
2022/04/28 12:15:57;;;;;;;6.43;3.22;;;20.20;83.90;;;;;;5096999;28;20079;-84
2022/04/28 12:21:18;;;;;;;6.25;2.40;;;20.10;83.70;;;;;;5097482;28;20110;-84
2022/04/28 12:23:47;;;;;;;3.78;2.78;;;20.20;83.50;;;;;;5087507;27;20933;-84
2022/04/28 12:26:13;;;;;;;3.75;2.40;;;20.20;83.40;;;;;;5096236;28;20040;-84
2022/04/28 12:28:43;;;;;;;2.90;1.92;;;20.30;83.40;;;;;;5095828;28;20044;-84
2022/04/28 12:31:14;;;;;;;3.42;2.38;;;20.40;83.20;;;;;;5095072;28;20040;-84
2022/04/28 12:33:41;;;;;;;4.18;2.47;;;20.50;82.80;;;;;;5076683;28;20992;-84
2022/04/28 12:36:14;;;;;;;4.65;3.55;;;20.60;82.60;;;;;;5088055;27;20043;-84
2022/04/28 12:38:45;;;;;;;6.35;3.60;;;20.80;82.50;;;;;;5096123;28;20062;-84
2022/04/28 12:41:15;;;;;;;6.97;4.15;;;21.00;82.90;;;;;;5095939;28;20071;-84
2022/04/28 12:43:43;;;;;;;5.07;3.28;;;21.10;82.40;;;;;;5095487;28;20044;-84
2022/04/28 12:46:10;;;;;;;7.05;3.38;;;21.00;81.40;;;;;;5070800;28;20044;-84
2022/04/28 12:48:38;;;;;;;4.80;3.03;;;21.00;81.40;;;;;;5095935;28;20047;-84
2022/04/28 12:51:13;;;;;;;8.10;3.42;;;21.00;81.90;;;;;;5095949;28;20512;-84
2022/04/28 12:53:41;;;;;;;6.80;3.40;;;21.10;81.80;;;;;;5094869;28;20044;-84
2022/04/28 12:56:13;;;;;;;5.43;3.33;;;21.20;82.10;;;;;;5077955;28;20032;-81
2022/04/28 12:58:43;;;;;;;4.50;2.92;;;21.30;82.10;;;;;;5094765;28;20040;-83
2022/04/28 13:01:12;;;;;;;4.50;3.20;;;21.40;82.10;;;;;;5076744;28;20043;-83
2022/04/28 13:03:40;;;;;;;5.22;3.50;;;21.40;81.90;;;;;;5085610;28;21014;-83
2022/04/28 13:06:07;;;;;;;6.95;4.22;;;21.40;81.50;;;;;;5096322;28;20036;-84
2022/04/28 13:08:33;;;;;;;5.53;3.30;;;21.40;81.70;;;;;;5076743;28;20047;-83
2022/04/28 13:11:00;;;;;;;5.13;3.35;;;21.50;81.30;;;;;;5094826;28;20121;-83
2022/04/28 13:13:26;;;;;;;4.97;3.53;;;21.50;81.30;;;;;;5094771;28;20036;-84
2022/04/28 13:15:52;;;;;;;5.53;3.42;;;21.50;81.20;;;;;;5093179;28;20033;-84
2022/04/28 13:18:17;;;;;;;5.38;3.50;;;21.60;81.60;;;;;;5095279;28;20046;-84
2022/04/28 13:20:43;;;;;;;5.30;3.22;;;21.60;81.10;;;;;;5070342;28;20040;-86
2022/04/28 13:23:11;;;;;;;4.22;3.03;;;21.70;81.10;;;;;;5096134;28;20048;-85
2022/04/28 13:25:37;;;;;;;9.27;3.28;;;21.70;81.00;;;;;;5095650;28;20036;-86
2022/04/28 13:28:10;;;;;;;3.67;2.50;;;21.70;80.30;;;;;;5086311;28;20051;-87
2022/04/28 13:30:38;;;;;;;3.83;2.75;;;21.60;79.70;;;;;;5095806;28;20036;-86
2022/04/28 13:33:08;;;;;;;6.22;4.30;;;21.50;79.40;;;;;;5077589;28;20054;-85